ADDS METAR Data INFO
IDs: Format: Raw Decoded Include TAF

Data at: 1916 UTC 19 Jul 2018

KSMF 191853Z 19005KT 10SM CLR 28/16 A2989 RMK AO2 SLP121 T02780156
KSMF 191753Z 17004KT 10SM CLR 26/16 A2989 RMK AO2 SLP122 T02610156 10261 20172 50005
KSMF 191653Z 18004KT 10SM CLR 23/14 A2989 RMK AO2 SLP122 T02330139
KSMF 191553Z 15004KT 10SM CLR 21/13 A2989 RMK AO2 SLP122 T02060133
KSMF 191453Z 14006KT 10SM CLR 19/13 A2988 RMK AO2 SLP117 T01890128 53013
KSMF 191353Z 18005KT 10SM CLR 17/13 A2986 RMK AO2 SLP112 T01720128
KSMF 191253Z 17006KT 10SM FEW120 18/13 A2985 RMK AO2 SLP107 T01780128
KSMF 191153Z 18006KT 10SM CLR 19/13 A2984 RMK AO2 SLP104 T01890128 10244 20189 53003
KSMF 191053Z 17009KT 10SM CLR 19/13 A2984 RMK AO2 SLP102 T01940128
KSMF 190953Z 16007KT 10SM CLR 21/13 A2983 RMK AO2 SLP102 T02060128
KSMF 190853Z 15009KT 10SM FEW200 22/13 A2983 RMK AO2 SLP101 T02170133 50002
KSMF 190753Z 16010KT 10SM FEW200 22/13 A2984 RMK AO2 SLP103 T02220133 403940139
KSMF 190653Z 15010KT 10SM FEW250 23/14 A2983 RMK AO2 SLP101 T02330139
KSMF 190553Z 15008KT 10SM FEW250 24/14 A2982 RMK AO2 SLP099 T02440144 10389 20239 53011
KSMF 190453Z 16008KT 10SM FEW250 26/15 A2981 RMK AO2 SLP094 T02610150
KSMF 190353Z 17012KT 10SM SCT250 27/16 A2980 RMK AO2 SLP090 T02720156
KSMF 190253Z 17009KT 10SM BKN250 32/17 A2979 RMK AO2 SLP088 T03170167 55008
KSMF 190153Z 18009KT 10SM BKN250 37/12 A2979 RMK AO2 SLP087 T03670122
KSMF 190053Z COR 23008KT 10SM BKN250 38/11 A2980 RMK AO2 SLP090 T03830106
KSMF 182353Z 21008KT 10SM BKN250 39/11 A2981 RMK AO2 SLP096 T03890111 10394 20283 57023
KSMF 182253Z VRB05KT 10SM BKN250 38/09 A2984 RMK AO2 SLP103 T03830089
KSMF 182153Z VRB03KT 10SM BKN250 37/13 A2986 RMK AO2 SLP111 T03720133
KSMF 182053Z 23004KT 10SM BKN250 36/15 A2988 RMK AO2 SLP119 T03560150 58017
KSMF 181953Z 26005KT 10SM BKN250 33/17 A2990 RMK AO2 SLP125 T03330167
KSMF 181853Z 27005KT 10SM SCT250 31/17 A2993 RMK AO2 SLP133 T03110167
KSMF 181753Z 00000KT 10SM FEW250 28/16 A2993 RMK AO2 SLP135 T02830156 10283 20139 50003
KSMF 181653Z 22004KT 10SM FEW250 26/14 A2994 RMK AO2 SLP138 T02560144
KSMF 181553Z 00000KT 10SM FEW250 23/14 A2993 RMK AO2 SLP136 T02280139
KSMF 181453Z 00000KT 10SM FEW250 20/13 A2992 RMK AO2 SLP132 T02000133 51010
KSMF 181353Z 15004KT 10SM CLR 18/13 A2991 RMK AO2 SLP129 T01830133
KSMF 181253Z 00000KT 10SM FEW120 18/13 A2990 RMK AO2 SLP126 T01780133
KSMF 181153Z 18006KT 10SM CLR 18/13 A2989 RMK AO2 SLP122 T01780133 10228 20178 51004
KSMF 181053Z 17006KT 10SM CLR 19/13 A2989 RMK AO2 SLP121 T01890133
KSMF 180953Z 18008KT 10SM CLR 20/14 A2989 RMK AO2 SLP119 T02000139
KSMF 180853Z 16008KT 10SM CLR 21/13 A2988 RMK AO2 SLP118 T02110133 51008
KSMF 180753Z 15011KT 10SM CLR 22/13 A2988 RMK AO2 SLP116 T02220133 403830161